Time;durP1;ratioP1;P1;durP2;ratioP2;P2;SDS_P1;SDS_P2;PMS_P1;PMS_P2;Temp;Humidity;BMP_temperature;BMP_pressure;BME280_temperature;BME280_humidity;BME280_pressure;Samples;Min_cycle;Max_cycle;Signal;HPM_P1;HPM_P2
2021/12/04 00:01:10;;;;;;;8.73;4.53;;;1.90;99.90;;;;;;4981401;28;20030;-70
2021/12/04 00:03:40;;;;;;;8.82;4.60;;;1.90;99.90;;;;;;4963560;28;20026;-69
2021/12/04 00:06:10;;;;;;;6.88;4.03;;;1.90;99.90;;;;;;4981434;28;20262;-70
2021/12/04 00:08:36;;;;;;;8.20;4.75;;;1.90;99.90;;;;;;4980767;28;20210;-69
2021/12/04 00:11:05;;;;;;;8.38;4.80;;;1.90;99.90;;;;;;4963804;28;20316;-70
2021/12/04 00:13:30;;;;;;;;;;;1.80;99.90;;;;;;4981485;28;20260;-69
2021/12/04 00:15:56;;;;;;;7.95;4.32;;;1.80;99.90;;;;;;4963413;28;19902;-70
2021/12/04 00:18:22;;;;;;;7.05;4.25;;;1.80;99.90;;;;;;4980610;28;20209;-70
2021/12/04 00:20:48;;;;;;;6.50;3.70;;;1.80;99.90;;;;;;4980572;28;20262;-70
2021/12/04 00:23:14;;;;;;;7.68;4.60;;;1.80;99.90;;;;;;4963818;28;20042;-70
2021/12/04 00:25:40;;;;;;;10.02;3.83;;;1.90;99.90;;;;;;4963247;28;20293;-70
2021/12/04 00:28:07;;;;;;;5.90;3.22;;;1.90;99.90;;;;;;4963703;28;20019;-70
2021/12/04 00:30:33;;;;;;;8.77;3.85;;;1.80;99.90;;;;;;4980342;28;20046;-70
2021/12/04 00:33:06;;;;;;;7.90;4.20;;;1.80;99.90;;;;;;4980607;28;20018;-70
2021/12/04 00:35:44;;;;;;;6.65;3.47;;;1.80;99.90;;;;;;4980655;28;20312;-70
2021/12/04 00:51:43;;;;;;;5.75;2.47;;;1.80;99.90;;;;;;4980211;28;20249;-70
2021/12/04 00:54:10;;;;;;;7.28;2.28;;;1.80;99.90;;;;;;4980191;28;20148;-69
2021/12/04 00:56:38;;;;;;;4.15;1.75;;;1.90;99.90;;;;;;4980165;28;20046;-70
2021/12/04 00:59:04;;;;;;;5.28;1.65;;;1.90;99.90;;;;;;4980604;28;20038;-70
2021/12/04 01:01:30;;;;;;;5.38;1.90;;;1.90;99.90;;;;;;4980550;28;20030;-70
2021/12/04 01:03:56;;;;;;;4.50;2.38;;;1.90;99.90;;;;;;4979949;28;20082;-70
2021/12/04 01:06:22;;;;;;;4.00;1.88;;;1.90;99.90;;;;;;4980475;28;20041;-70
2021/12/04 01:08:47;;;;;;;3.60;2.08;;;1.90;99.90;;;;;;4979653;28;20432;-70
2021/12/04 01:11:13;;;;;;;4.32;2.50;;;1.90;99.90;;;;;;4980585;28;20023;-69
2021/12/04 01:13:39;;;;;;;5.03;2.38;;;1.80;99.90;;;;;;4979782;28;20019;-70
2021/12/04 01:18:49;;;;;;;4.65;1.98;;;1.80;99.90;;;;;;4979810;28;20038;-70
2021/12/04 01:21:15;;;;;;;5.63;3.05;;;1.70;99.90;;;;;;4980341;28;20023;-70
2021/12/04 01:24:00;;;;;;;3.50;2.17;;;1.60;99.90;;;;;;4979658;28;20027;-70
2021/12/04 01:26:26;;;;;;;4.07;2.40;;;1.60;99.90;;;;;;4963168;28;20094;-70
2021/12/04 01:28:52;;;;;;;3.90;2.22;;;1.60;99.90;;;;;;4979432;28;20030;-70
2021/12/04 01:31:18;;;;;;;3.55;1.90;;;1.60;99.90;;;;;;4980481;28;20025;-70
2021/12/04 01:33:44;;;;;;;4.13;2.20;;;1.60;99.90;;;;;;4979811;28;20050;-70
2021/12/04 01:36:10;;;;;;;3.92;2.00;;;1.60;99.90;;;;;;4980010;28;20081;-70
2021/12/04 01:38:36;;;;;;;3.08;1.90;;;1.60;99.90;;;;;;4979462;28;20294;-71
2021/12/04 01:41:03;;;;;;;3.85;1.88;;;1.60;99.90;;;;;;4979877;28;20025;-70
2021/12/04 01:43:29;;;;;;;3.45;1.85;;;1.50;99.90;;;;;;4962329;28;20026;-70
2021/12/04 01:45:55;;;;;;;6.00;2.28;;;1.50;99.90;;;;;;4962519;28;20049;-70
2021/12/04 01:48:23;;;;;;;3.53;1.80;;;1.50;99.90;;;;;;4980052;28;20031;-70
2021/12/04 01:50:49;;;;;;;5.82;1.95;;;1.50;99.90;;;;;;4979606;28;20023;-69
2021/12/04 01:53:15;;;;;;;4.18;2.10;;;1.50;99.90;;;;;;4979537;28;20062;-70
2021/12/04 01:55:40;;;;;;;4.20;1.95;;;1.50;99.90;;;;;;4979337;28;20023;-70
2021/12/04 01:58:07;;;;;;;2.58;1.45;;;1.50;99.90;;;;;;4979771;28;20078;-69
2021/12/04 02:00:37;;;;;;;3.63;1.88;;;1.50;99.90;;;;;;4962704;28;20066;-70
2021/12/04 02:03:04;;;;;;;2.88;1.42;;;1.50;99.90;;;;;;4980102;28;20038;-69
2021/12/04 02:05:30;;;;;;;3.25;1.80;;;1.50;99.90;;;;;;4981099;28;20022;-70
2021/12/04 02:07:57;;;;;;;2.88;1.20;;;1.60;99.90;;;;;;4983025;28;20019;-69
2021/12/04 02:10:22;;;;;;;4.15;1.20;;;1.60;99.90;;;;;;4983080;28;20082;-69
2021/12/04 02:12:49;;;;;;;4.63;1.85;;;1.60;99.90;;;;;;4965342;28;20209;-69
2021/12/04 02:15:16;;;;;;;3.63;1.55;;;1.60;99.90;;;;;;4983315;28;20022;-69
2021/12/04 02:18:02;;;;;;;2.47;1.30;;;1.60;99.90;;;;;;4982590;28;20019;-70
2021/12/04 02:20:31;;;;;;;3.22;1.30;;;1.60;99.90;;;;;;4983124;28;20031;-69
2021/12/04 02:22:57;;;;;;;2.80;1.45;;;1.60;99.90;;;;;;4982774;28;20294;-69
2021/12/04 02:25:23;;;;;;;2.47;1.30;;;1.60;99.90;;;;;;4965837;28;20030;-69
2021/12/04 02:27:50;;;;;;;4.88;1.63;;;1.60;99.90;;;;;;4982466;28;20030;-70
2021/12/04 02:30:19;;;;;;;3.40;1.42;;;1.50;99.90;;;;;;4965868;28;20027;-69
2021/12/04 02:32:45;;;;;;;4.53;2.30;;;1.50;99.90;;;;;;4965234;28;20019;-69
2021/12/04 02:35:12;;;;;;;4.13;1.17;;;1.40;99.90;;;;;;4982717;28;20034;-70
2021/12/04 02:37:39;;;;;;;3.30;1.58;;;1.40;99.90;;;;;;4965106;28;20029;-67
2021/12/04 02:40:07;;;;;;;8.63;4.68;;;1.30;99.90;;;;;;4982814;28;20084;-69
2021/12/04 02:42:33;;;;;;;6.05;5.05;;;1.30;99.90;;;;;;4982585;28;20014;-69
2021/12/04 02:45:01;;;;;;;3.03;1.85;;;1.30;99.90;;;;;;4964644;28;20353;-69
2021/12/04 02:47:27;;;;;;;2.33;1.47;;;1.30;99.90;;;;;;4983220;28;20019;-69
2021/12/04 02:49:54;;;;;;;4.05;1.60;;;1.20;99.90;;;;;;4982179;28;20093;-69
2021/12/04 02:52:21;;;;;;;4.00;1.58;;;1.30;99.90;;;;;;4982630;28;20097;-69
2021/12/04 02:54:47;;;;;;;3.80;1.30;;;1.30;99.90;;;;;;4982028;28;20073;-69
2021/12/04 02:57:15;;;;;;;2.83;1.25;;;1.30;99.90;;;;;;4982369;28;20302;-69
2021/12/04 02:59:42;;;;;;;3.93;2.20;;;1.30;99.90;;;;;;4981685;28;20031;-69
2021/12/04 03:02:23;;;;;;;6.22;1.63;;;1.30;99.90;;;;;;4982450;28;20065;-70
2021/12/04 03:04:52;;;;;;;2.70;1.40;;;1.30;99.90;;;;;;4964496;28;20026;-69
2021/12/04 03:07:19;;;;;;;3.38;1.15;;;1.30;99.90;;;;;;4964594;28;20030;-69
2021/12/04 03:09:45;;;;;;;2.45;1.20;;;1.30;99.90;;;;;;4981928;28;20332;-70
2021/12/04 03:12:13;;;;;;;2.58;1.35;;;1.30;99.90;;;;;;4964941;28;20026;-70
2021/12/04 03:14:39;;;;;;;4.22;1.40;;;1.30;99.90;;;;;;4981633;28;20026;-70
2021/12/04 03:17:06;;;;;;;3.38;1.58;;;1.30;99.90;;;;;;4981615;28;20019;-68
2021/12/04 03:19:33;;;;;;;2.58;1.15;;;1.30;99.90;;;;;;4981855;28;20034;-68
2021/12/04 03:21:58;;;;;;;4.22;1.52;;;1.30;99.90;;;;;;4981290;28;20026;-69
2021/12/04 03:24:25;;;;;;;2.75;1.50;;;1.30;99.90;;;;;;4964766;28;20023;-69
2021/12/04 03:26:51;;;;;;;4.43;1.92;;;1.20;99.90;;;;;;4981210;28;20034;-70
2021/12/04 03:29:20;;;;;;;2.78;1.75;;;1.20;99.90;;;;;;4981564;28;20054;-70
2021/12/04 03:40:21;;;;;;;4.57;1.88;;;1.10;99.90;;;;;;4981410;28;20198;-69
2021/12/04 03:42:47;;;;;;;3.70;1.65;;;1.10;99.90;;;;;;4980998;28;20023;-69
2021/12/04 03:45:12;;;;;;;4.03;1.88;;;1.20;99.90;;;;;;4981366;28;20087;-70
2021/12/04 03:47:42;;;;;;;3.47;1.85;;;1.10;99.90;;;;;;4963733;28;20018;-69
2021/12/04 03:50:08;;;;;;;1.90;1.30;;;1.10;99.90;;;;;;4981510;28;20266;-69
2021/12/04 03:52:36;;;;;;;5.07;1.75;;;1.10;99.90;;;;;;4981296;28;20314;-68
2021/12/04 03:55:04;;;;;;;3.38;1.67;;;1.10;99.90;;;;;;4963768;28;20030;-69
2021/12/04 03:57:31;;;;;;;3.55;1.83;;;1.10;99.90;;;;;;4981208;28;20252;-69
2021/12/04 03:59:59;;;;;;;3.10;2.13;;;1.10;99.90;;;;;;4980569;28;20038;-69
2021/12/04 04:02:26;;;;;;;3.95;2.22;;;1.10;99.90;;;;;;4981065;28;20048;-69
2021/12/04 04:04:51;;;;;;;4.93;1.80;;;1.00;99.90;;;;;;4980330;28;20023;-68
2021/12/04 04:07:17;;;;;;;2.72;1.90;;;1.10;99.90;;;;;;4981097;28;20049;-69
2021/12/04 04:09:43;;;;;;;3.63;1.50;;;1.10;99.90;;;;;;4980712;28;20022;-68
2021/12/04 04:12:09;;;;;;;3.72;1.77;;;1.10;99.90;;;;;;4981262;28;20042;-69
2021/12/04 04:14:36;;;;;;;2.72;1.80;;;1.10;99.90;;;;;;4980965;28;20033;-69
2021/12/04 04:17:02;;;;;;;3.10;1.70;;;1.10;99.90;;;;;;4980974;28;20418;-69
2021/12/04 04:19:28;;;;;;;3.38;2.08;;;1.10;99.90;;;;;;4980664;28;20353;-69
2021/12/04 04:21:56;;;;;;;3.35;1.98;;;1.20;99.90;;;;;;4980776;28;20307;-69
2021/12/04 04:24:23;;;;;;;4.17;1.73;;;1.20;99.90;;;;;;4980908;28;20019;-69
2021/12/04 04:26:49;;;;;;;3.38;1.92;;;1.20;99.90;;;;;;4962964;28;20023;-69
2021/12/04 04:29:15;;;;;;;3.30;1.98;;;1.30;99.90;;;;;;4980441;28;20027;-69
2021/12/04 04:31:46;;;;;;;3.92;1.80;;;1.20;99.90;;;;;;4980252;28;20022;-69
2021/12/04 04:34:15;;;;;;;3.65;2.08;;;1.20;99.90;;;;;;4963517;28;20217;-69
2021/12/04 04:37:29;;;;;;;;;;;1.30;99.90;;;;;;4963551;28;20094;-68
2021/12/04 05:01:26;;;;;;;3.30;2.70;;;1.30;99.90;;;;;;4980830;28;20015;-69
2021/12/04 05:14:33;;;;;;;4.93;2.90;;;1.20;99.90;;;;;;4980498;28;20102;-69
2021/12/04 05:17:26;;;;;;;4.57;2.40;;;1.20;99.90;;;;;;4979792;28;20026;-68
2021/12/04 05:19:55;;;;;;;2.90;1.88;;;1.20;99.90;;;;;;4962508;28;20030;-69
2021/12/04 05:22:22;;;;;;;3.35;1.85;;;1.20;99.90;;;;;;4963318;28;20023;-69
2021/12/04 05:24:48;;;;;;;3.88;2.58;;;1.20;99.90;;;;;;4979934;28;20038;-69
2021/12/04 05:27:15;;;;;;;4.38;2.72;;;1.20;99.90;;;;;;4963410;28;20042;-70
2021/12/04 05:29:42;;;;;;;4.63;3.03;;;1.30;99.90;;;;;;4962541;28;20026;-69
2021/12/04 05:32:09;;;;;;;4.13;2.25;;;1.30;99.90;;;;;;4963372;28;20101;-69
2021/12/04 05:34:35;;;;;;;5.95;3.28;;;1.30;99.90;;;;;;4980409;28;20271;-69
2021/12/04 05:37:00;;;;;;;3.20;2.20;;;1.30;99.90;;;;;;4979790;28;20022;-69
2021/12/04 05:39:26;;;;;;;4.22;2.25;;;1.30;99.90;;;;;;4981414;28;20238;-70
2021/12/04 05:41:52;;;;;;;6.25;2.53;;;1.30;99.90;;;;;;4983293;28;20026;-70
2021/12/04 05:44:21;;;;;;;7.75;3.15;;;1.30;99.90;;;;;;4983551;28;20019;-70
2021/12/04 05:46:54;;;;;;;5.40;2.83;;;1.30;99.90;;;;;;4983592;28;20023;-70
2021/12/04 05:57:08;;;;;;;4.72;2.88;;;1.30;99.90;;;;;;4983881;28;20027;-69
2021/12/04 05:59:35;;;;;;;4.53;2.88;;;1.40;99.90;;;;;;4983249;28;20319;-69
2021/12/04 06:02:01;;;;;;;6.22;2.47;;;1.30;99.90;;;;;;4983103;28;20042;-68
2021/12/04 06:04:27;;;;;;;6.07;2.55;;;1.30;99.90;;;;;;4966328;28;20029;-69
2021/12/04 06:06:53;;;;;;;6.25;3.22;;;1.30;99.90;;;;;;4965770;28;20022;-68
2021/12/04 06:09:19;;;;;;;5.20;2.50;;;1.30;99.90;;;;;;4983340;28;20023;-69
2021/12/04 06:11:46;;;;;;;6.80;3.20;;;1.30;99.90;;;;;;4983144;28;20061;-68
2021/12/04 06:14:11;;;;;;;5.85;3.28;;;1.30;99.90;;;;;;4966003;28;20302;-69
2021/12/04 06:16:38;;;;;;;4.43;2.92;;;1.30;99.90;;;;;;4966225;28;20203;-69
2021/12/04 06:24:38;;;;;;;4.40;3.03;;;1.40;99.90;;;;;;4983018;28;20066;-68
2021/12/04 06:27:04;;;;;;;3.67;2.63;;;1.50;99.90;;;;;;4983100;28;20027;-69
2021/12/04 06:29:29;;;;;;;6.07;2.80;;;1.50;99.90;;;;;;4982751;28;20150;-69
2021/12/04 06:31:55;;;;;;;4.88;2.72;;;1.50;99.90;;;;;;4982773;28;20070;-68
2021/12/04 06:34:21;;;;;;;4.80;2.80;;;1.50;99.90;;;;;;4982759;28;20354;-69
2021/12/04 06:36:46;;;;;;;3.03;2.30;;;1.70;99.90;;;;;;4982445;28;20213;-69
2021/12/04 06:39:12;;;;;;;3.72;2.53;;;1.70;99.90;;;;;;4965450;28;20086;-69
2021/12/04 06:41:38;;;;;;;3.78;2.50;;;1.70;99.90;;;;;;4982625;28;20081;-69
2021/12/04 06:44:04;;;;;;;4.85;2.80;;;1.70;99.90;;;;;;4983214;28;20061;-69
2021/12/04 06:46:30;;;;;;;3.45;2.33;;;1.70;99.90;;;;;;4965563;28;20031;-68
2021/12/04 06:49:07;;;;;;;2.80;2.10;;;1.70;99.90;;;;;;4982097;28;20022;-69
2021/12/04 06:51:42;;;;;;;4.13;2.83;;;1.70;99.90;;;;;;4964660;28;20063;-69
2021/12/04 06:54:20;;;;;;;15.02;2.85;;;1.60;99.90;;;;;;4982743;28;20022;-68
2021/12/04 06:56:46;;;;;;;7.38;2.58;;;1.60;99.90;;;;;;4982299;28;20048;-69
2021/12/04 06:59:15;;;;;;;4.63;2.72;;;1.70;99.90;;;;;;4982636;28;20038;-69
2021/12/04 07:01:41;;;;;;;4.72;2.90;;;1.80;99.90;;;;;;4981779;28;20046;-68
2021/12/04 07:04:08;;;;;;;5.75;2.85;;;1.80;99.90;;;;;;4982532;28;20204;-68
2021/12/04 07:06:52;;;;;;;5.00;3.10;;;1.80;99.90;;;;;;4965226;28;20033;-69
2021/12/04 07:09:19;;;;;;;4.10;2.88;;;1.70;99.90;;;;;;4982050;28;20082;-70
2021/12/04 07:11:44;;;;;;;5.05;3.05;;;1.70;99.90;;;;;;4981712;28;20058;-69
2021/12/04 07:14:10;;;;;;;4.18;2.63;;;1.70;99.90;;;;;;4982028;28;20219;-69
2021/12/04 07:16:36;;;;;;;5.95;3.05;;;1.70;99.90;;;;;;4982058;28;20273;-69
2021/12/04 07:19:01;;;;;;;6.65;3.40;;;1.80;99.90;;;;;;4964215;28;20323;-70
2021/12/04 07:21:27;;;;;;;6.10;3.63;;;1.80;99.90;;;;;;4982603;28;20297;-69
2021/12/04 07:26:38;;;;;;;6.22;3.70;;;1.80;99.90;;;;;;4982068;28;20470;-69
2021/12/04 07:29:04;;;;;;;6.57;3.75;;;1.80;99.90;;;;;;4982075;28;20050;-69
2021/12/04 07:31:31;;;;;;;6.90;3.30;;;1.90;99.90;;;;;;4964766;28;20042;-69
2021/12/04 07:33:56;;;;;;;6.03;3.42;;;1.90;99.90;;;;;;4981426;28;20321;-68
2021/12/04 07:36:23;;;;;;;6.30;3.30;;;1.90;99.90;;;;;;4981635;28;20023;-68
2021/12/04 07:38:49;;;;;;;6.13;3.95;;;1.90;99.90;;;;;;4981169;28;20054;-69
2021/12/04 07:41:15;;;;;;;5.65;3.78;;;1.90;99.90;;;;;;4981733;28;20351;-69
2021/12/04 07:43:42;;;;;;;5.75;3.90;;;1.90;99.90;;;;;;4947949;28;20101;-69
2021/12/04 07:46:08;;;;;;;5.65;3.80;;;2.00;99.90;;;;;;4981728;28;20404;-69
2021/12/04 07:48:33;;;;;;;6.07;3.83;;;2.00;99.90;;;;;;4964502;28;20023;-69
2021/12/04 07:51:02;;;;;;;7.93;3.95;;;2.10;99.90;;;;;;4980991;28;20257;-69
2021/12/04 07:53:30;;;;;;;7.55;4.47;;;2.10;99.90;;;;;;4981238;28;20273;-69
2021/12/04 07:55:56;;;;;;;5.22;3.47;;;2.10;99.90;;;;;;4964018;28;20297;-69
2021/12/04 07:58:22;;;;;;;6.38;3.60;;;2.20;99.90;;;;;;4964039;28;20066;-69
2021/12/04 08:00:48;;;;;;;6.35;4.22;;;2.20;99.90;;;;;;4963941;28;20050;-69
2021/12/04 08:03:14;;;;;;;6.55;4.05;;;2.30;99.90;;;;;;4963320;28;20320;-69
2021/12/04 08:05:40;;;;;;;7.35;4.18;;;2.30;99.90;;;;;;4981373;28;20022;-69
2021/12/04 08:08:06;;;;;;;6.28;4.15;;;2.30;99.90;;;;;;4981425;28;20212;-69
2021/12/04 08:10:33;;;;;;;6.30;3.92;;;2.40;99.90;;;;;;4981332;28;20325;-69
2021/12/04 08:13:01;;;;;;;6.22;4.15;;;2.40;99.90;;;;;;4980811;28;20018;-69
2021/12/04 08:15:27;;;;;;;5.63;3.60;;;2.40;99.90;;;;;;4981352;28;20085;-69
2021/12/04 08:17:53;;;;;;;8.35;4.38;;;2.40;99.90;;;;;;4963463;28;20097;-67
2021/12/04 08:20:20;;;;;;;4.97;3.83;;;2.50;99.90;;;;;;4981283;28;20033;-69
2021/12/04 08:22:47;;;;;;;8.55;4.28;;;2.50;99.90;;;;;;4980823;28;20018;-68
2021/12/04 08:25:16;;;;;;;6.43;3.85;;;2.50;99.90;;;;;;4963876;28;20085;-69
2021/12/04 08:27:41;;;;;;;;;;;2.60;99.90;;;;;;4980983;28;20019;-69
2021/12/04 08:30:11;;;;;;;6.18;3.92;;;2.50;99.90;;;;;;4964057;28;19901;-69
2021/12/04 08:32:38;;;;;;;7.40;4.10;;;2.50;99.90;;;;;;4964362;28;20030;-69
2021/12/04 08:35:05;;;;;;;6.32;3.55;;;2.50;99.90;;;;;;4980644;28;20045;-69
2021/12/04 08:37:31;;;;;;;7.15;4.13;;;2.60;99.90;;;;;;4980950;28;20027;-69
2021/12/04 08:39:57;;;;;;;11.82;5.38;;;2.60;99.90;;;;;;4980319;28;20328;-69
2021/12/04 08:42:24;;;;;;;6.38;4.03;;;2.70;99.90;;;;;;4980632;28;20062;-69
2021/12/04 08:44:51;;;;;;;6.85;3.90;;;2.70;99.90;;;;;;4980251;28;20023;-69
2021/12/04 08:47:17;;;;;;;8.02;4.60;;;2.70;99.90;;;;;;4963792;28;20290;-69
2021/12/04 08:49:43;;;;;;;6.63;3.67;;;2.80;99.90;;;;;;4963010;28;20203;-69
2021/12/04 08:52:10;;;;;;;4.93;3.30;;;2.80;99.90;;;;;;4947412;28;20058;-68
2021/12/04 08:54:37;;;;;;;5.13;3.20;;;2.80;99.90;;;;;;4980782;28;20197;-69
2021/12/04 08:57:04;;;;;;;6.35;4.32;;;2.80;99.90;;;;;;4980122;28;20032;-68
2021/12/04 08:59:32;;;;;;;7.18;4.13;;;2.80;99.90;;;;;;4963295;28;20052;-68
2021/12/04 09:01:59;;;;;;;6.15;4.18;;;2.80;99.90;;;;;;4962805;28;20030;-68
2021/12/04 09:04:27;;;;;;;5.22;3.47;;;2.80;99.90;;;;;;4980362;28;20023;-69
2021/12/04 09:06:54;;;;;;;7.13;4.13;;;2.80;99.90;;;;;;4962606;28;20030;-68
2021/12/04 09:09:21;;;;;;;7.82;4.40;;;2.80;99.90;;;;;;4980184;28;20057;-67
2021/12/04 09:11:51;;;;;;;7.88;4.57;;;2.80;99.90;;;;;;4979879;28;20027;-69
2021/12/04 09:14:20;;;;;;;7.15;3.97;;;2.80;99.90;;;;;;4981778;28;20021;-69
2021/12/04 09:16:46;;;;;;;6.90;4.80;;;2.80;99.90;;;;;;4966708;28;20098;-69
2021/12/04 09:19:11;;;;;;;7.63;4.43;;;2.80;99.90;;;;;;4984257;28;20027;-69
2021/12/04 09:21:39;;;;;;;7.55;4.72;;;2.90;99.90;;;;;;4984771;28;20372;-69
2021/12/04 09:24:15;;;;;;;4.87;3.27;;;2.90;99.90;;;;;;4983774;28;20022;-69
2021/12/04 10:15:57;;;;;;;8.25;4.95;;;3.50;99.90;;;;;;4983427;28;20038;-69
2021/12/04 10:34:40;;;;;;;6.95;3.72;;;3.70;99.90;;;;;;4982844;28;20046;-70
2021/12/04 10:37:09;;;;;;;6.40;4.22;;;3.70;99.90;;;;;;4982661;28;20022;-69
2021/12/04 10:39:35;;;;;;;5.65;4.07;;;3.70;99.90;;;;;;4982903;28;20081;-69
2021/12/04 10:42:07;;;;;;;6.13;4.45;;;3.70;99.90;;;;;;4982688;28;20098;-69
2021/12/04 10:44:38;;;;;;;6.97;4.38;;;3.60;99.90;;;;;;4982579;28;20023;-69
2021/12/04 10:47:10;;;;;;;7.00;4.28;;;3.60;99.90;;;;;;4982492;28;20034;-69
2021/12/04 10:52:19;;;;;;;7.65;4.40;;;3.50;99.90;;;;;;4982761;28;20050;-69
2021/12/04 10:54:51;;;;;;;7.07;4.45;;;3.60;99.90;;;;;;4964816;28;20022;-69
2021/12/04 11:00:03;;;;;;;13.75;6.97;;;3.70;99.90;;;;;;4981992;28;20030;-68
2021/12/04 11:02:46;;;;;;;9.80;4.88;;;3.70;99.90;;;;;;4982419;28;20403;-70
2021/12/04 11:26:36;;;;;;;9.13;5.53;;;3.90;99.90;;;;;;4981568;28;20030;-71
2021/12/04 11:28:26;;;;;;;8.40;5.03;;;3.90;99.90;;;;;;4960443;28;20058;-69
2021/12/04 11:43:55;;;;;;;8.77;5.75;;;3.90;99.90;;;;;;4980704;28;20106;-69
2021/12/04 11:46:29;;;;;;;8.18;5.55;;;3.90;99.90;;;;;;4981769;28;20026;-68
2021/12/04 11:48:59;;;;;;;10.82;6.05;;;3.90;99.90;;;;;;4963982;28;20302;-70
2021/12/04 11:51:27;;;;;;;10.45;5.82;;;3.90;99.90;;;;;;4981491;28;20301;-70
2021/12/04 11:53:55;;;;;;;8.33;5.27;;;3.80;99.90;;;;;;4963719;28;20026;-70
2021/12/04 11:56:28;;;;;;;8.40;5.45;;;4.00;99.90;;;;;;4981553;28;20213;-69
2021/12/04 11:58:55;;;;;;;9.75;6.07;;;4.00;99.90;;;;;;4980943;28;20054;-69
2021/12/04 12:01:30;;;;;;;11.57;5.60;;;4.00;99.90;;;;;;4963950;28;20114;-71
2021/12/04 12:03:59;;;;;;;7.20;5.57;;;4.00;99.90;;;;;;4981076;28;20022;-70
2021/12/04 12:06:54;;;;;;;7.30;5.05;;;4.00;99.90;;;;;;4981634;28;20217;-70
2021/12/04 12:09:28;;;;;;;9.35;5.60;;;3.90;99.90;;;;;;4943545;28;20146;-69
2021/12/04 12:11:57;;;;;;;7.03;5.57;;;4.00;99.90;;;;;;4980850;28;20111;-69
2021/12/04 12:14:39;;;;;;;9.45;6.38;;;4.00;99.90;;;;;;4981308;28;20110;-69
2021/12/04 12:17:07;;;;;;;7.38;5.10;;;4.00;99.90;;;;;;4981008;28;20205;-70
2021/12/04 12:19:39;;;;;;;10.20;5.80;;;4.00;99.90;;;;;;4981073;28;20027;-70
2021/12/04 12:22:17;;;;;;;8.45;5.82;;;4.10;99.90;;;;;;4980901;28;20081;-70
2021/12/04 12:27:45;;;;;;;7.93;5.75;;;4.10;99.90;;;;;;4981231;28;20094;-68
2021/12/04 12:38:53;;;;;;;11.18;6.70;;;4.20;99.90;;;;;;4980722;28;20019;-70
2021/12/04 12:41:43;;;;;;;9.07;5.40;;;4.20;99.90;;;;;;4968203;28;20072;-70
2021/12/04 12:44:12;;;;;;;8.07;4.82;;;4.20;99.90;;;;;;4980339;28;20072;-69
2021/12/04 12:46:44;;;;;;;7.22;4.75;;;4.30;99.90;;;;;;4980936;28;20102;-70
2021/12/04 12:49:42;;;;;;;9.10;5.38;;;4.30;99.90;;;;;;4962326;28;20027;-70
2021/12/04 12:52:10;;;;;;;9.38;5.60;;;4.40;99.90;;;;;;4962658;28;20047;-70
2021/12/04 12:54:41;;;;;;;4.75;3.38;;;4.30;99.90;;;;;;4963235;28;20098;-68
2021/12/04 12:57:23;;;;;;;4.13;2.60;;;4.40;99.90;;;;;;4947050;28;20023;-69
2021/12/04 13:11:44;;;;;;;4.72;3.03;;;4.40;99.90;;;;;;4980497;28;20356;-69
2021/12/04 13:14:14;;;;;;;4.97;2.72;;;4.40;99.90;;;;;;4962817;28;20027;-70
2021/12/04 13:16:43;;;;;;;8.88;4.60;;;4.40;99.90;;;;;;4980671;28;20034;-69
2021/12/04 13:19:13;;;;;;;10.70;3.90;;;4.50;99.90;;;;;;4962700;28;20052;-70
2021/12/04 13:21:42;;;;;;;6.93;4.03;;;4.50;99.90;;;;;;4963277;28;20065;-72
2021/12/04 13:24:11;;;;;;;6.93;3.50;;;4.60;99.90;;;;;;4962862;28;20368;-69
2021/12/04 13:26:41;;;;;;;4.53;2.97;;;4.50;99.90;;;;;;4963345;28;20022;-70
2021/12/04 13:29:08;;;;;;;5.25;3.53;;;4.50;99.90;;;;;;4979717;28;20190;-70
2021/12/04 13:31:38;;;;;;;8.23;3.60;;;4.50;99.90;;;;;;4963343;28;20023;-70
2021/12/04 13:34:06;;;;;;;5.25;2.90;;;4.50;99.90;;;;;;4979971;28;20037;-69
2021/12/04 13:36:32;;;;;;;6.35;4.10;;;4.50;99.90;;;;;;4963202;28;20045;-70
2021/12/04 13:39:01;;;;;;;7.10;3.85;;;4.50;99.90;;;;;;4979416;28;20373;-70
2021/12/04 13:41:29;;;;;;;7.68;3.38;;;4.50;99.90;;;;;;4963158;28;20031;-68
2021/12/04 13:43:56;;;;;;;6.80;3.80;;;4.50;99.90;;;;;;4962553;28;20025;-69
2021/12/04 13:46:24;;;;;;;6.03;3.57;;;4.50;99.90;;;;;;4963127;28;20023;-69
2021/12/04 13:48:50;;;;;;;7.05;3.38;;;4.50;99.90;;;;;;4962392;28;20033;-70
2021/12/04 13:51:16;;;;;;;9.90;3.78;;;4.50;99.90;;;;;;4980003;28;20093;-69
2021/12/04 13:53:45;;;;;;;7.75;4.10;;;4.50;99.90;;;;;;4962668;28;20054;-69
2021/12/04 13:56:17;;;;;;;7.55;3.50;;;4.50;99.90;;;;;;4979535;28;20058;-70
2021/12/04 13:58:46;;;;;;;6.63;3.78;;;4.50;99.90;;;;;;4980096;28;20019;-69
2021/12/04 14:01:12;;;;;;;6.75;3.72;;;4.50;99.90;;;;;;4964511;28;20027;-69
2021/12/04 14:03:38;;;;;;;5.07;3.70;;;4.60;99.90;;;;;;4966250;28;20048;-69
2021/12/04 14:06:13;;;;;;;6.32;3.95;;;4.50;99.90;;;;;;4965825;28;20062;-69
2021/12/04 14:08:39;;;;;;;5.10;3.95;;;4.50;99.90;;;;;;4983318;28;20206;-69
2021/12/04 14:11:05;;;;;;;6.95;3.50;;;4.50;99.90;;;;;;4965967;28;20445;-69
2021/12/04 14:13:31;;;;;;;6.47;3.85;;;4.50;99.90;;;;;;4983447;28;20041;-69
2021/12/04 14:15:58;;;;;;;6.45;4.07;;;4.50;99.90;;;;;;4982780;28;20018;-69
2021/12/04 14:18:26;;;;;;;6.28;4.15;;;4.50;99.90;;;;;;4966159;28;20161;-69
2021/12/04 14:20:54;;;;;;;6.60;4.05;;;4.50;99.90;;;;;;4982832;28;20030;-69
2021/12/04 14:23:23;;;;;;;6.40;3.70;;;4.50;99.90;;;;;;4965854;28;20102;-69
2021/12/04 14:25:54;;;;;;;5.95;3.65;;;4.40;99.90;;;;;;4965499;28;20023;-69
2021/12/04 14:28:34;;;;;;;5.57;3.97;;;4.40;99.90;;;;;;4983133;28;20019;-69
2021/12/04 14:31:00;;;;;;;7.80;3.85;;;4.40;99.90;;;;;;4965508;28;20027;-69
2021/12/04 14:33:26;;;;;;;7.20;3.88;;;4.40;99.90;;;;;;4983550;28;20279;-69
2021/12/04 14:35:54;;;;;;;6.70;4.15;;;4.40;99.90;;;;;;4982579;28;20287;-69
2021/12/04 14:38:26;;;;;;;5.57;3.35;;;4.40;99.90;;;;;;4982914;28;20023;-69
2021/12/04 14:41:06;;;;;;;9.55;4.85;;;4.30;99.90;;;;;;4982073;28;20023;-68
2021/12/04 14:43:35;;;;;;;7.25;3.90;;;4.20;99.90;;;;;;4982653;28;20033;-69
2021/12/04 14:46:04;;;;;;;6.25;3.47;;;4.20;99.90;;;;;;4948979;28;20088;-69
2021/12/04 14:48:35;;;;;;;8.00;3.67;;;4.20;99.90;;;;;;4982469;28;20022;-69
2021/12/04 14:51:09;;;;;;;7.43;4.10;;;4.20;99.90;;;;;;4982365;28;20022;-70
2021/12/04 14:53:38;;;;;;;11.23;3.75;;;4.20;99.90;;;;;;4982481;28;20050;-69
2021/12/04 14:56:09;;;;;;;7.72;3.83;;;4.20;99.90;;;;;;4981835;28;20384;-69
2021/12/04 14:58:35;;;;;;;7.13;4.32;;;4.10;99.90;;;;;;4982474;28;20110;-69
2021/12/04 15:01:13;;;;;;;5.88;4.03;;;4.00;99.90;;;;;;4964707;28;20047;-69
2021/12/04 15:03:52;;;;;;;9.00;4.03;;;4.00;99.90;;;;;;4982661;28;20045;-68
2021/12/04 15:06:21;;;;;;;6.10;3.33;;;4.00;99.90;;;;;;4982607;28;20197;-69
2021/12/04 15:08:53;;;;;;;8.65;4.25;;;4.00;99.90;;;;;;4982341;28;20018;-70
2021/12/04 15:11:22;;;;;;;6.00;3.50;;;4.00;99.90;;;;;;4965217;28;20302;-70
2021/12/04 15:13:56;;;;;;;9.43;4.07;;;4.00;99.90;;;;;;4981921;28;20019;-70
2021/12/04 15:16:42;;;;;;;12.88;4.28;;;4.00;99.90;;;;;;4982516;28;20278;-70
2021/12/04 15:19:11;;;;;;;7.65;4.22;;;4.00;99.90;;;;;;4981765;28;20150;-70
2021/12/04 15:21:49;;;;;;;7.57;3.65;;;4.10;99.90;;;;;;4982334;28;20332;-70
2021/12/04 15:24:33;;;;;;;9.18;3.92;;;4.10;99.90;;;;;;4964677;28;20018;-68
2021/12/04 15:27:04;;;;;;;5.70;3.65;;;4.10;99.90;;;;;;4964181;28;20298;-69
2021/12/04 15:29:32;;;;;;;6.40;4.05;;;4.00;99.90;;;;;;4981879;28;20023;-69
2021/12/04 15:32:00;;;;;;;8.85;4.80;;;4.00;99.90;;;;;;4981632;28;20298;-69
2021/12/04 15:34:44;;;;;;;6.72;4.03;;;4.00;99.90;;;;;;4964751;28;20257;-69
2021/12/04 15:37:10;;;;;;;7.40;3.50;;;4.00;99.90;;;;;;4981686;28;20022;-69
2021/12/04 15:39:43;;;;;;;6.75;4.28;;;4.00;99.90;;;;;;4981717;28;20035;-69
2021/12/04 15:45:16;;;;;;;5.78;3.85;;;4.00;99.90;;;;;;4981390;28;20057;-70
2021/12/04 15:47:50;;;;;;;8.55;4.20;;;3.90;99.90;;;;;;4981901;28;20107;-69
2021/12/04 15:53:10;;;;;;;7.60;4.00;;;3.90;99.90;;;;;;4981328;28;20098;-70
2021/12/04 15:55:49;;;;;;;6.95;4.22;;;3.90;99.90;;;;;;4981896;28;20022;-68
2021/12/04 15:58:21;;;;;;;8.75;5.13;;;3.90;99.90;;;;;;4964356;28;20071;-70
2021/12/04 16:01:03;;;;;;;10.77;4.57;;;4.00;99.90;;;;;;4981722;28;20252;-70
2021/12/04 16:03:28;;;;;;;9.43;4.70;;;4.00;99.90;;;;;;4981317;28;20035;-70
2021/12/04 16:05:57;;;;;;;6.00;3.90;;;4.00;99.90;;;;;;4963952;28;20057;-69
2021/12/04 16:08:29;;;;;;;;;;;4.00;99.90;;;;;;4981927;28;20218;-69
2021/12/04 16:10:56;;;;;;;8.45;3.92;;;4.00;99.90;;;;;;4980575;28;20208;-70
2021/12/04 16:13:30;;;;;;;5.63;3.63;;;3.90;99.90;;;;;;4980967;28;20045;-70
2021/12/04 16:15:57;;;;;;;5.90;3.80;;;4.00;99.90;;;;;;4980983;28;20026;-70
2021/12/04 16:18:28;;;;;;;7.80;4.45;;;4.00;99.90;;;;;;4981325;28;20089;-69
2021/12/04 16:20:55;;;;;;;6.75;4.25;;;4.00;99.90;;;;;;4980766;28;20037;-69
2021/12/04 16:23:22;;;;;;;10.68;6.05;;;4.00;99.90;;;;;;4963409;28;20046;-70
2021/12/04 16:25:49;;;;;;;6.68;4.25;;;4.00;99.90;;;;;;4963619;28;20104;-70
2021/12/04 16:31:11;;;;;;;9.18;4.97;;;4.00;99.90;;;;;;4980698;28;20025;-70
2021/12/04 16:33:44;;;;;;;6.25;4.38;;;4.00;99.90;;;;;;4980452;28;20098;-70
2021/12/04 16:36:25;;;;;;;8.35;4.60;;;3.90;99.90;;;;;;4962991;28;20023;-69